sensor_id;sensor_type;location;lat;lon;timestamp;temperature;humidity
43227;DHT22;28839;52.404;9.808;2022-07-10T01:33:06;14.10;99.90
43227;DHT22;28839;52.404;9.808;2022-07-10T01:40:23;14.10;99.90
43227;DHT22;28839;52.404;9.808;2022-07-10T01:47:19;14.00;99.90
43227;DHT22;28839;52.404;9.808;2022-07-10T01:54:16;14.00;99.90
43227;DHT22;28839;52.404;9.808;2022-07-10T02:01:12;14.00;99.90
43227;DHT22;28839;52.404;9.808;2022-07-10T02:08:07;13.90;99.90
43227;DHT22;28839;52.404;9.808;2022-07-10T02:15:01;13.90;99.90
43227;DHT22;28839;52.404;9.808;2022-07-10T02:21:56;13.90;99.90
43227;DHT22;28839;52.404;9.808;2022-07-10T02:28:52;14.00;99.90
43227;DHT22;28839;52.404;9.808;2022-07-10T02:35:45;14.10;99.90
43227;DHT22;28839;52.404;9.808;2022-07-10T02:42:39;13.90;99.90
43227;DHT22;28839;52.404;9.808;2022-07-10T02:56:29;13.90;99.90
43227;DHT22;28839;52.404;9.808;2022-07-10T03:03:23;13.80;99.90
43227;DHT22;28839;52.404;9.808;2022-07-10T03:24:06;14.00;99.90
43227;DHT22;28839;52.404;9.808;2022-07-10T03:31:02;13.70;99.90
43227;DHT22;28839;52.404;9.808;2022-07-10T03:37:56;13.80;99.90
43227;DHT22;28839;52.404;9.808;2022-07-10T03:44:49;13.80;99.90
43227;DHT22;28839;52.404;9.808;2022-07-10T03:51:45;13.80;99.90
43227;DHT22;28839;52.404;9.808;2022-07-10T03:58:39;13.80;99.90
43227;DHT22;28839;52.404;9.808;2022-07-10T04:05:33;13.90;99.90
43227;DHT22;28839;52.404;9.808;2022-07-10T04:12:29;13.70;99.90
43227;DHT22;28839;52.404;9.808;2022-07-10T04:19:22;13.90;99.90
43227;DHT22;28839;52.404;9.808;2022-07-10T04:33:12;13.90;99.90
43227;DHT22;28839;52.404;9.808;2022-07-10T04:40:07;14.00;99.90
43227;DHT22;28839;52.404;9.808;2022-07-10T04:47:02;13.90;99.90
43227;DHT22;28839;52.404;9.808;2022-07-10T04:53:57;13.90;99.90
43227;DHT22;28839;52.404;9.808;2022-07-10T05:00:51;14.00;99.90
43227;DHT22;28839;52.404;9.808;2022-07-10T05:07:45;14.00;99.90
43227;DHT22;28839;52.404;9.808;2022-07-10T05:28:29;14.10;99.90
43227;DHT22;28839;52.404;9.808;2022-07-10T05:42:18;14.10;99.90
43227;DHT22;28839;52.404;9.808;2022-07-10T05:49:12;14.10;99.90
43227;DHT22;28839;52.404;9.808;2022-07-10T05:56:08;14.20;99.90
43227;DHT22;28839;52.404;9.808;2022-07-10T06:09:56;14.70;99.90
43227;DHT22;28839;52.404;9.808;2022-07-10T06:23:45;15.00;99.90
43227;DHT22;28839;52.404;9.808;2022-07-10T06:37:35;15.00;99.90
43227;DHT22;28839;52.404;9.808;2022-07-10T06:44:29;15.30;99.90
43227;DHT22;28839;52.404;9.808;2022-07-10T06:51:23;15.40;99.90
43227;DHT22;28839;52.404;9.808;2022-07-10T06:58:19;15.70;99.90
43227;DHT22;28839;52.404;9.808;2022-07-10T07:05:13;16.20;99.90
43227;DHT22;28839;52.404;9.808;2022-07-10T07:12:08;16.30;99.90
43227;DHT22;28839;52.404;9.808;2022-07-10T07:26:00;16.60;99.90
43227;DHT22;28839;52.404;9.808;2022-07-10T07:46:44;18.00;99.90
43227;DHT22;28839;52.404;9.808;2022-07-10T08:00:34;17.80;99.90
43227;DHT22;28839;52.404;9.808;2022-07-10T08:21:24;18.70;99.90
43227;DHT22;28839;52.404;9.808;2022-07-10T08:35:12;18.20;99.90
43227;DHT22;28839;52.404;9.808;2022-07-10T09:09:54;18.40;99.90
43227;DHT22;28839;52.404;9.808;2022-07-10T09:30:40;17.50;99.90
43227;DHT22;28839;52.404;9.808;2022-07-10T09:37:38;17.80;99.90
43227;DHT22;28839;52.404;9.808;2022-07-10T09:44:34;19.40;99.90
43227;DHT22;28839;52.404;9.808;2022-07-10T09:51:30;18.80;99.90
43227;DHT22;28839;52.404;9.808;2022-07-10T10:33:43;20.00;99.90
43227;DHT22;28839;52.404;9.808;2022-07-10T10:40:39;20.80;99.90
43227;DHT22;28839;52.404;9.808;2022-07-10T10:47:43;19.50;99.90
43227;DHT22;28839;52.404;9.808;2022-07-10T11:30:05;19.40;99.90
43227;DHT22;28839;52.404;9.808;2022-07-10T11:43:55;19.50;99.90
43227;DHT22;28839;52.404;9.808;2022-07-10T11:57:45;20.20;99.90
43227;DHT22;28839;52.404;9.808;2022-07-10T12:04:41;19.80;99.90
43227;DHT22;28839;52.404;9.808;2022-07-10T12:11:36;19.50;99.90
43227;DHT22;28839;52.404;9.808;2022-07-10T12:18:30;19.80;99.90
43227;DHT22;28839;52.404;9.808;2022-07-10T12:25:26;20.30;99.90
43227;DHT22;28839;52.404;9.808;2022-07-10T12:32:21;19.90;99.90
43227;DHT22;28839;52.404;9.808;2022-07-10T12:39:18;19.30;99.90
43227;DHT22;28839;52.404;9.808;2022-07-10T12:53:09;19.40;99.90
43227;DHT22;28839;52.404;9.808;2022-07-10T13:00:05;19.00;99.90
43227;DHT22;28839;52.404;9.808;2022-07-10T13:07:12;19.10;99.90
43227;DHT22;28839;52.404;9.808;2022-07-10T13:14:08;19.00;99.90
43227;DHT22;28839;52.404;9.808;2022-07-10T13:21:01;18.70;99.90
43227;DHT22;28839;52.404;9.808;2022-07-10T13:27:56;18.40;99.90
43227;DHT22;28839;52.404;9.808;2022-07-10T13:34:51;18.40;99.90
43227;DHT22;28839;52.404;9.808;2022-07-10T13:48:39;18.60;99.90
43227;DHT22;28839;52.404;9.808;2022-07-10T13:55:35;18.60;99.90
43227;DHT22;28839;52.404;9.808;2022-07-10T14:02:30;18.70;99.90
43227;DHT22;28839;52.404;9.808;2022-07-10T14:09:24;18.30;99.90
43227;DHT22;28839;52.404;9.808;2022-07-10T14:16:20;18.70;99.90
43227;DHT22;28839;52.404;9.808;2022-07-10T14:23:14;18.70;99.90
43227;DHT22;28839;52.404;9.808;2022-07-10T14:30:08;18.40;99.90
43227;DHT22;28839;52.404;9.808;2022-07-10T14:43:58;18.60;99.90
43227;DHT22;28839;52.404;9.808;2022-07-10T14:50:52;18.60;99.90
43227;DHT22;28839;52.404;9.808;2022-07-10T14:57:47;18.60;99.90
43227;DHT22;28839;52.404;9.808;2022-07-10T15:04:42;19.00;99.90
43227;DHT22;28839;52.404;9.808;2022-07-10T15:11:36;18.60;99.90
43227;DHT22;28839;52.404;9.808;2022-07-10T15:18:31;19.10;99.90
43227;DHT22;28839;52.404;9.808;2022-07-10T15:25:25;18.60;99.90
43227;DHT22;28839;52.404;9.808;2022-07-10T15:39:14;18.70;99.90
43227;DHT22;28839;52.404;9.808;2022-07-10T15:53:05;18.50;99.90
43227;DHT22;28839;52.404;9.808;2022-07-10T16:13:48;18.50;99.90
43227;DHT22;28839;52.404;9.808;2022-07-10T16:20:44;18.30;99.90
43227;DHT22;28839;52.404;9.808;2022-07-10T16:27:38;18.40;99.90
43227;DHT22;28839;52.404;9.808;2022-07-10T16:34:31;18.10;99.90
43227;DHT22;28839;52.404;9.808;2022-07-10T16:41:27;17.70;99.90
43227;DHT22;28839;52.404;9.808;2022-07-10T16:48:20;18.30;99.90
43227;DHT22;28839;52.404;9.808;2022-07-10T16:55:15;18.60;99.90
43227;DHT22;28839;52.404;9.808;2022-07-10T17:02:11;18.70;99.90
43227;DHT22;28839;52.404;9.808;2022-07-10T17:09:04;18.70;99.90
43227;DHT22;28839;52.404;9.808;2022-07-10T17:22:54;18.70;99.90
43227;DHT22;28839;52.404;9.808;2022-07-10T17:29:49;18.40;99.90
43227;DHT22;28839;52.404;9.808;2022-07-10T17:57:26;17.90;99.90
43227;DHT22;28839;52.404;9.808;2022-07-10T18:04:22;17.80;99.90
43227;DHT22;28839;52.404;9.808;2022-07-10T18:11:16;17.70;99.90
43227;DHT22;28839;52.404;9.808;2022-07-10T18:18:12;17.70;99.90
43227;DHT22;28839;52.404;9.808;2022-07-10T18:25:07;17.60;99.90
43227;DHT22;28839;52.404;9.808;2022-07-10T18:32:02;17.40;99.90
43227;DHT22;28839;52.404;9.808;2022-07-10T18:38:56;17.40;99.90
43227;DHT22;28839;52.404;9.808;2022-07-10T18:45:53;17.20;99.90
43227;DHT22;28839;52.404;9.808;2022-07-10T18:52:47;17.20;99.90
43227;DHT22;28839;52.404;9.808;2022-07-10T18:59:42;17.20;99.90
43227;DHT22;28839;52.404;9.808;2022-07-10T19:06:38;17.00;99.90
43227;DHT22;28839;52.404;9.808;2022-07-10T19:13:32;16.80;99.90
43227;DHT22;28839;52.404;9.808;2022-07-10T19:20:26;16.80;99.90
43227;DHT22;28839;52.404;9.808;2022-07-10T19:34:17;16.60;99.90
43227;DHT22;28839;52.404;9.808;2022-07-10T19:41:10;16.50;99.90
43227;DHT22;28839;52.404;9.808;2022-07-10T19:48:07;16.20;99.90
43227;DHT22;28839;52.404;9.808;2022-07-10T19:55:01;16.20;99.90
43227;DHT22;28839;52.404;9.808;2022-07-10T20:01:56;16.20;99.90
43227;DHT22;28839;52.404;9.808;2022-07-10T20:08:51;15.80;99.90
43227;DHT22;28839;52.404;9.808;2022-07-10T20:29:36;16.10;99.90
43227;DHT22;28839;52.404;9.808;2022-07-10T20:36:30;16.00;99.90
43227;DHT22;28839;52.404;9.808;2022-07-10T20:43:41;15.90;99.90
43227;DHT22;28839;52.404;9.808;2022-07-10T20:50:37;15.70;99.90
43227;DHT22;28839;52.404;9.808;2022-07-10T20:57:31;15.80;99.90
43227;DHT22;28839;52.404;9.808;2022-07-10T21:04:25;15.90;99.90
43227;DHT22;28839;52.404;9.808;2022-07-10T21:11:20;15.80;99.90
43227;DHT22;28839;52.404;9.808;2022-07-10T21:18:15;15.70;99.90
43227;DHT22;28839;52.404;9.808;2022-07-10T21:25:08;15.90;99.90
43227;DHT22;28839;52.404;9.808;2022-07-10T21:38:59;15.70;99.90
43227;DHT22;28839;52.404;9.808;2022-07-10T21:45:53;15.70;99.90
43227;DHT22;28839;52.404;9.808;2022-07-10T21:52:48;15.70;99.90
43227;DHT22;28839;52.404;9.808;2022-07-10T21:59:42;15.60;99.90
43227;DHT22;28839;52.404;9.808;2022-07-10T22:06:36;15.60;99.90
43227;DHT22;28839;52.404;9.808;2022-07-10T22:20:26;15.50;99.90
43227;DHT22;28839;52.404;9.808;2022-07-10T22:27:20;15.40;99.90
43227;DHT22;28839;52.404;9.808;2022-07-10T22:34:15;15.40;99.90
43227;DHT22;28839;52.404;9.808;2022-07-10T22:41:09;15.40;99.90
43227;DHT22;28839;52.404;9.808;2022-07-10T22:48:03;15.30;99.90
43227;DHT22;28839;52.404;9.808;2022-07-10T22:54:59;15.20;99.90
43227;DHT22;28839;52.404;9.808;2022-07-10T23:01:53;15.20;99.90
43227;DHT22;28839;52.404;9.808;2022-07-10T23:08:47;15.20;99.90
43227;DHT22;28839;52.404;9.808;2022-07-10T23:15:42;15.30;99.90
43227;DHT22;28839;52.404;9.808;2022-07-10T23:22:36;15.30;99.90
43227;DHT22;28839;52.404;9.808;2022-07-10T23:29:30;15.10;99.90
43227;DHT22;28839;52.404;9.808;2022-07-10T23:36:25;15.10;99.90
43227;DHT22;28839;52.404;9.808;2022-07-10T23:43:19;15.10;99.90
43227;DHT22;28839;52.404;9.808;2022-07-10T23:50:13;15.10;99.90
43227;DHT22;28839;52.404;9.808;2022-07-10T23:57:09;15.10;99.90
